createdAt,value
2022-10-25T00:02:25.699Z,100.00
2022-10-25T00:04:53.906Z,100.00
2022-10-25T00:07:22.179Z,100.00
2022-10-25T00:09:50.379Z,100.00
2022-10-25T00:12:18.506Z,100.00
2022-10-25T00:14:46.897Z,100.00
2022-10-25T00:17:15.139Z,100.00
2022-10-25T00:19:43.297Z,100.00
2022-10-25T00:22:11.736Z,100.00
2022-10-25T00:24:39.930Z,100.00
2022-10-25T00:27:08.283Z,100.00
2022-10-25T00:29:36.773Z,100.00
2022-10-25T00:32:05.267Z,100.00
2022-10-25T00:34:33.410Z,100.00
2022-10-25T00:37:01.670Z,100.00
2022-10-25T00:39:30.036Z,100.00
2022-10-25T00:41:58.294Z,100.00
2022-10-25T00:44:38.752Z,100.00
2022-10-25T00:47:22.195Z,100.00
2022-10-25T00:49:59.463Z,100.00
2022-10-25T00:52:32.450Z,100.00
2022-10-25T00:55:02.154Z,100.00
2022-10-25T00:57:37.172Z,100.00
2022-10-25T01:00:06.891Z,100.00
2022-10-25T01:02:35.513Z,100.00
2022-10-25T01:05:04.712Z,100.00
2022-10-25T01:07:32.997Z,100.00
2022-10-25T01:10:01.169Z,100.00
2022-10-25T01:12:29.328Z,100.00
2022-10-25T01:14:57.751Z,100.00
2022-10-25T01:17:34.005Z,100.00
2022-10-25T01:20:23.871Z,100.00
2022-10-25T01:23:17.231Z,100.00
2022-10-25T01:26:06.449Z,100.00
2022-10-25T01:28:56.458Z,100.00
2022-10-25T01:31:28.555Z,100.00
2022-10-25T01:34:12.704Z,100.00
2022-10-25T01:36:57.964Z,100.00
2022-10-25T01:39:44.713Z,100.00
2022-10-25T01:42:38.255Z,100.00
2022-10-25T01:45:14.311Z,100.00
2022-10-25T01:47:49.841Z,100.00
2022-10-25T01:50:24.817Z,100.00
2022-10-25T01:55:51.046Z,100.00
2022-10-25T01:58:50.143Z,100.00
2022-10-25T02:01:33.614Z,100.00
2022-10-25T02:04:11.763Z,100.00
2022-10-25T02:06:59.694Z,100.00
2022-10-25T02:10:00.949Z,100.00
2022-10-25T02:12:56.013Z,100.00
2022-10-25T02:16:11.270Z,100.00
2022-10-25T02:18:45.370Z,100.00
2022-10-25T02:21:16.425Z,100.00
2022-10-25T02:23:45.809Z,100.00
2022-10-25T02:26:15.582Z,100.00
2022-10-25T02:28:44.881Z,100.00
2022-10-25T02:31:16.939Z,100.00
2022-10-25T02:33:46.473Z,100.00
2022-10-25T02:36:20.908Z,100.00
2022-10-25T02:38:51.195Z,100.00
2022-10-25T02:41:21.097Z,100.00
2022-10-25T02:43:49.510Z,100.00
2022-10-25T02:46:20.455Z,100.00
2022-10-25T02:48:48.928Z,100.00
2022-10-25T02:51:18.188Z,100.00
2022-10-25T02:53:46.857Z,100.00
2022-10-25T02:56:19.409Z,100.00
2022-10-25T02:58:49.674Z,100.00
2022-10-25T03:01:20.094Z,100.00
2022-10-25T03:03:48.475Z,100.00
2022-10-25T03:06:17.086Z,100.00
2022-10-25T03:08:46.426Z,100.00
2022-10-25T03:11:16.829Z,100.00
2022-10-25T03:13:45.097Z,100.00
2022-10-25T03:16:13.421Z,100.00
2022-10-25T03:18:41.669Z,100.00
2022-10-25T03:21:09.994Z,100.00
2022-10-25T03:23:38.601Z,100.00
2022-10-25T03:26:06.795Z,100.00
2022-10-25T03:28:35.001Z,100.00
2022-10-25T03:31:03.152Z,100.00
2022-10-25T03:36:05.448Z,100.00
2022-10-25T03:38:33.659Z,100.00
2022-10-25T03:41:01.925Z,100.00
2022-10-25T03:43:30.251Z,100.00
2022-10-25T03:45:58.733Z,100.00
2022-10-25T03:48:27.521Z,100.00
2022-10-25T03:50:56.038Z,100.00
2022-10-25T03:53:24.474Z,100.00
2022-10-25T03:55:52.716Z,100.00
2022-10-25T03:58:26.668Z,100.00
2022-10-25T04:00:54.964Z,100.00
2022-10-25T04:03:24.148Z,100.00
2022-10-25T04:05:52.376Z,100.00
2022-10-25T04:08:20.611Z,100.00
2022-10-25T04:10:48.866Z,100.00
2022-10-25T04:13:17.214Z,100.00
2022-10-25T04:15:48.725Z,100.00
2022-10-25T04:18:17.068Z,100.00
2022-10-25T04:20:45.298Z,100.00
2022-10-25T04:23:13.528Z,100.00
2022-10-25T04:25:41.792Z,100.00
2022-10-25T04:28:10.035Z,100.00
2022-10-25T04:30:39.016Z,100.00
2022-10-25T04:33:07.824Z,100.00
2022-10-25T04:35:36.020Z,100.00
2022-10-25T04:38:04.211Z,100.00
2022-10-25T04:40:32.635Z,100.00
2022-10-25T04:43:02.625Z,100.00
2022-10-25T04:45:30.925Z,100.00
2022-10-25T04:47:59.959Z,100.00
2022-10-25T04:50:28.228Z,100.00
2022-10-25T04:52:56.415Z,100.00
2022-10-25T04:55:24.669Z,100.00
2022-10-25T04:57:52.843Z,100.00
2022-10-25T05:00:21.194Z,100.00
2022-10-25T05:02:52.623Z,100.00
2022-10-25T05:05:22.962Z,100.00
2022-10-25T05:07:51.670Z,100.00
2022-10-25T05:10:19.925Z,100.00
2022-10-25T05:12:48.421Z,100.00
2022-10-25T05:15:17.048Z,100.00
2022-10-25T05:17:45.250Z,100.00
2022-10-25T05:20:13.496Z,100.00
2022-10-25T05:22:42.012Z,100.00
2022-10-25T05:25:10.254Z,100.00
2022-10-25T05:27:39.230Z,100.00
2022-10-25T05:30:08.099Z,100.00
2022-10-25T05:32:36.595Z,100.00
2022-10-25T05:35:05.293Z,100.00
2022-10-25T05:37:33.647Z,100.00
2022-10-25T05:40:01.942Z,100.00
2022-10-25T05:42:30.224Z,100.00
2022-10-25T05:44:58.460Z,100.00
2022-10-25T05:47:26.637Z,100.00
2022-10-25T05:49:55.867Z,100.00
2022-10-25T05:52:24.167Z,100.00
2022-10-25T05:54:52.338Z,100.00
2022-10-25T05:57:20.742Z,100.00
2022-10-25T05:59:49.051Z,100.00
2022-10-25T06:02:17.325Z,100.00
2022-10-25T06:04:50.261Z,100.00
2022-10-25T06:07:20.657Z,100.00
2022-10-25T06:09:49.051Z,100.00
2022-10-25T06:12:17.294Z,100.00
2022-10-25T06:14:45.660Z,100.00
2022-10-25T06:17:14.042Z,100.00
2022-10-25T06:19:42.275Z,100.00
2022-10-25T06:22:12.582Z,100.00
2022-10-25T06:24:40.858Z,100.00
2022-10-25T06:27:09.140Z,100.00
2022-10-25T06:29:37.343Z,100.00
2022-10-25T06:32:05.786Z,100.00
2022-10-25T06:34:33.937Z,100.00
2022-10-25T06:37:02.232Z,100.00
2022-10-25T06:39:30.431Z,100.00
2022-10-25T06:41:58.634Z,100.00
2022-10-25T06:44:26.987Z,100.00
2022-10-25T06:49:43.494Z,100.00
2022-10-25T06:52:11.704Z,100.00
2022-10-25T06:54:39.910Z,100.00
2022-10-25T06:57:08.346Z,100.00
2022-10-25T06:59:36.594Z,100.00
2022-10-25T07:02:04.832Z,100.00
2022-10-25T07:04:33.197Z,100.00
2022-10-25T07:07:01.771Z,100.00
2022-10-25T07:09:30.110Z,100.00
2022-10-25T07:11:58.446Z,100.00
2022-10-25T07:14:26.635Z,100.00
2022-10-25T07:16:54.864Z,100.00
2022-10-25T07:19:24.665Z,100.00
2022-10-25T07:21:52.916Z,100.00
2022-10-25T07:24:21.117Z,100.00
2022-10-25T07:26:49.498Z,100.00
2022-10-25T07:29:17.669Z,100.00
2022-10-25T07:31:46.038Z,100.00
2022-10-25T07:34:15.607Z,100.00
2022-10-25T07:36:44.442Z,100.00
2022-10-25T07:39:13.669Z,100.00
2022-10-25T07:41:41.947Z,100.00
2022-10-25T07:44:15.895Z,100.00
2022-10-25T07:46:45.173Z,100.00
2022-10-25T07:49:13.876Z,100.00
2022-10-25T07:51:42.339Z,100.00
2022-10-25T07:54:10.650Z,100.00
2022-10-25T07:56:38.848Z,100.00
2022-10-25T07:59:07.041Z,100.00
2022-10-25T08:01:36.755Z,100.00
2022-10-25T08:04:05.158Z,100.00
2022-10-25T08:06:33.353Z,100.00
2022-10-25T08:09:09.754Z,100.00
2022-10-25T08:11:43.034Z,100.00
2022-10-25T08:14:11.397Z,100.00
2022-10-25T08:16:39.690Z,100.00
2022-10-25T08:19:07.961Z,100.00
2022-10-25T08:21:36.431Z,100.00
2022-10-25T08:24:05.281Z,100.00
2022-10-25T08:26:36.761Z,100.00
2022-10-25T08:29:05.577Z,100.00
2022-10-25T08:31:33.859Z,100.00
2022-10-25T08:34:02.144Z,100.00
2022-10-25T08:36:30.528Z,100.00
2022-10-25T08:38:58.786Z,100.00
2022-10-25T08:41:45.140Z,100.00
2022-10-25T08:44:42.959Z,100.00
2022-10-25T08:47:11.247Z,100.00
2022-10-25T08:50:10.819Z,100.00
2022-10-25T08:52:45.080Z,99.86
2022-10-25T08:55:20.891Z,99.33
2022-10-25T08:57:51.663Z,99.18
2022-10-25T09:00:22.732Z,99.86
2022-10-25T09:02:59.853Z,96.76
2022-10-25T09:05:40.470Z,93.58
2022-10-25T09:08:27.146Z,94.78
2022-10-25T09:11:24.624Z,95.49
2022-10-25T09:14:02.571Z,95.18
2022-10-25T09:16:37.052Z,94.53
2022-10-25T09:19:16.847Z,94.24
2022-10-25T09:21:53.354Z,94.05
2022-10-25T09:24:35.494Z,93.04
2022-10-25T09:27:14.411Z,94.05
2022-10-25T09:29:55.657Z,93.44
2022-10-25T09:32:32.968Z,93.68
2022-10-25T09:35:03.937Z,94.02
2022-10-25T09:38:00.765Z,90.70
2022-10-25T09:40:47.627Z,90.48
2022-10-25T09:43:23.315Z,90.49
2022-10-25T09:45:56.142Z,88.56
2022-10-25T09:48:43.989Z,87.02
2022-10-25T09:51:50.490Z,86.99
2022-10-25T09:54:34.993Z,86.67
2022-10-25T09:57:03.813Z,85.86
2022-10-25T09:59:32.126Z,86.16
2022-10-25T10:02:00.637Z,86.26
2022-10-25T10:04:38.621Z,86.43
2022-10-25T10:07:14.800Z,84.21
2022-10-25T10:09:46.111Z,83.86
2022-10-25T10:12:22.418Z,84.17
2022-10-25T10:14:57.410Z,83.95
2022-10-25T10:17:27.327Z,85.21
2022-10-25T10:20:09.342Z,86.03
2022-10-25T10:22:51.830Z,86.57
2022-10-25T10:25:26.713Z,85.73
2022-10-25T10:27:57.822Z,85.99
2022-10-25T10:30:31.047Z,86.35
2022-10-25T10:33:02.761Z,85.62
2022-10-25T10:35:36.575Z,85.75
2022-10-25T10:38:19.936Z,86.17
2022-10-25T10:40:51.674Z,86.58
2022-10-25T10:43:24.530Z,87.22
2022-10-25T10:45:52.868Z,88.00
2022-10-25T10:48:23.742Z,87.88
2022-10-25T10:50:52.490Z,88.54
2022-10-25T10:53:25.651Z,89.51
2022-10-25T10:55:55.587Z,89.78
2022-10-25T10:58:42.822Z,89.59
2022-10-25T11:01:13.801Z,89.12
2022-10-25T11:03:48.961Z,89.43
2022-10-25T11:06:31.982Z,89.41
2022-10-25T11:09:12.807Z,89.42
2022-10-25T11:11:42.335Z,90.04
2022-10-25T11:14:19.830Z,90.05
2022-10-25T11:17:28.058Z,90.24
2022-10-25T11:20:07.621Z,90.83
2022-10-25T11:23:05.345Z,90.35
2022-10-25T11:25:59.031Z,90.19
2022-10-25T11:28:58.464Z,89.35
2022-10-25T11:31:33.707Z,87.84
2022-10-25T11:34:29.348Z,88.60
2022-10-25T11:37:04.039Z,88.91
2022-10-25T11:39:32.172Z,87.70
2022-10-25T11:42:35.663Z,88.40
2022-10-25T11:45:36.510Z,88.11
2022-10-25T11:48:16.566Z,88.48
2022-10-25T11:50:59.093Z,87.88
2022-10-25T11:53:40.369Z,87.85
2022-10-25T11:56:35.783Z,87.43
2022-10-25T11:59:12.586Z,87.39
2022-10-25T12:02:21.115Z,87.97
2022-10-25T12:05:12.458Z,88.38
2022-10-25T12:07:52.167Z,89.66
2022-10-25T12:10:35.680Z,89.91
2022-10-25T12:13:16.590Z,90.07
2022-10-25T12:15:48.899Z,89.28
2022-10-25T12:18:26.299Z,89.65
2022-10-25T12:20:56.004Z,88.27
2022-10-25T12:23:26.551Z,88.71
2022-10-25T12:26:05.810Z,87.96
2022-10-25T12:28:45.103Z,86.80
2022-10-25T12:31:45.979Z,85.19
2022-10-25T12:34:40.662Z,85.43
2022-10-25T12:37:19.052Z,82.41
2022-10-25T12:39:47.806Z,82.15
2022-10-25T12:42:23.847Z,82.91
2022-10-25T12:45:19.078Z,82.23
2022-10-25T12:47:50.005Z,80.79
2022-10-25T12:50:39.606Z,81.66
2022-10-25T12:53:31.581Z,79.59
2022-10-25T12:56:15.956Z,79.69
2022-10-25T12:58:54.160Z,80.71
2022-10-25T13:01:28.337Z,77.24
2022-10-25T13:04:17.549Z,78.27
2022-10-25T13:06:48.185Z,79.97
2022-10-25T13:09:24.770Z,80.22
2022-10-25T13:12:05.858Z,80.24
2022-10-25T13:14:38.457Z,79.78
2022-10-25T13:17:18.748Z,78.29
2022-10-25T13:19:56.190Z,77.58
2022-10-25T13:22:51.332Z,77.17
2022-10-25T13:25:31.890Z,76.83
2022-10-25T13:28:15.672Z,77.10
2022-10-25T13:30:44.564Z,75.73
2022-10-25T13:33:19.363Z,77.08
2022-10-25T13:35:47.401Z,77.33
2022-10-25T13:38:25.731Z,77.64
2022-10-25T13:41:15.505Z,78.47
2022-10-25T13:44:01.903Z,78.81
2022-10-25T13:46:34.033Z,78.99
2022-10-25T13:49:24.600Z,78.37
2022-10-25T13:52:32.379Z,78.89
2022-10-25T13:55:06.069Z,78.34
2022-10-25T13:57:54.377Z,78.54
2022-10-25T14:00:30.279Z,79.23
2022-10-25T14:03:12.824Z,79.73
2022-10-25T14:05:54.122Z,80.20
2022-10-25T14:08:24.711Z,80.63
2022-10-25T14:10:53.952Z,80.71
2022-10-25T14:13:27.650Z,81.11
2022-10-25T14:16:03.705Z,81.42
2022-10-25T14:18:36.215Z,81.56
2022-10-25T14:21:05.743Z,81.55
2022-10-25T14:23:35.488Z,81.66
2022-10-25T14:26:05.266Z,82.14
2022-10-25T14:28:35.824Z,82.49
2022-10-25T14:31:06.849Z,82.57
2022-10-25T14:33:50.249Z,82.87
2022-10-25T14:36:26.792Z,83.03
2022-10-25T14:39:00.009Z,83.31
2022-10-25T14:41:34.286Z,83.69
2022-10-25T14:44:03.702Z,83.91
2022-10-25T14:46:33.643Z,84.10
2022-10-25T14:49:02.605Z,84.34
2022-10-25T14:51:32.625Z,84.77
2022-10-25T14:54:07.564Z,84.93
2022-10-25T14:56:41.136Z,85.03
2022-10-25T14:59:20.855Z,85.28
2022-10-25T15:02:14.968Z,85.55
2022-10-25T15:04:46.953Z,85.67
2022-10-25T15:07:36.368Z,85.98
2022-10-25T15:12:34.963Z,86.43
2022-10-25T15:15:38.597Z,86.75
2022-10-25T15:18:23.404Z,87.25
2022-10-25T15:21:15.403Z,87.31
2022-10-25T15:24:04.418Z,87.38
2022-10-25T15:26:35.762Z,87.74
2022-10-25T15:29:06.547Z,87.78
2022-10-25T15:31:34.766Z,88.15
2022-10-25T15:34:05.477Z,88.65
2022-10-25T15:36:34.559Z,89.00
2022-10-25T15:39:12.853Z,89.43
2022-10-25T15:41:44.067Z,89.82
2022-10-25T15:44:12.289Z,90.19
2022-10-25T15:46:41.567Z,90.22
2022-10-25T15:49:12.982Z,90.37
2022-10-25T15:51:44.645Z,90.74
2022-10-25T15:54:18.228Z,91.15
2022-10-25T15:56:47.212Z,91.21
2022-10-25T16:01:49.323Z,91.44
2022-10-25T16:04:19.334Z,91.68
2022-10-25T16:06:48.604Z,91.90
2022-10-25T16:09:16.825Z,92.27
2022-10-25T16:11:48.968Z,92.85
2022-10-25T16:14:27.130Z,93.14
2022-10-25T16:16:58.155Z,93.44
2022-10-25T16:19:28.475Z,93.97
2022-10-25T16:21:57.035Z,94.48
2022-10-25T16:24:25.270Z,94.82
2022-10-25T16:26:53.568Z,95.26
2022-10-25T16:29:25.716Z,95.90
2022-10-25T16:31:54.173Z,96.27
2022-10-25T16:34:22.841Z,96.84
2022-10-25T16:36:52.665Z,97.58
2022-10-25T16:39:20.985Z,98.13
2022-10-25T16:41:50.027Z,98.55
2022-10-25T16:44:19.674Z,98.59
2022-10-25T16:46:47.898Z,98.74
2022-10-25T16:49:16.183Z,98.79
2022-10-25T16:51:44.499Z,98.85
2022-10-25T16:54:15.195Z,98.89
2022-10-25T16:56:43.877Z,98.92
2022-10-25T16:59:12.086Z,98.88
2022-10-25T17:01:44.601Z,98.91
2022-10-25T17:04:14.852Z,98.72
2022-10-25T17:06:43.213Z,98.60
2022-10-25T17:09:11.569Z,98.40
2022-10-25T17:11:40.530Z,98.42
2022-10-25T17:14:12.882Z,98.49
2022-10-25T17:16:44.555Z,98.59
2022-10-25T17:19:13.113Z,98.80
2022-10-25T17:21:41.384Z,98.91
2022-10-25T17:24:09.907Z,99.14
2022-10-25T17:26:39.194Z,99.16
2022-10-25T17:29:07.946Z,99.34
2022-10-25T17:31:36.479Z,99.47
2022-10-25T17:34:04.673Z,99.65
2022-10-25T17:36:33.594Z,99.64
2022-10-25T17:39:01.778Z,99.88
2022-10-25T17:41:30.127Z,100.00
2022-10-25T17:43:58.567Z,100.00
2022-10-25T17:46:29.501Z,100.00
2022-10-25T17:49:06.004Z,100.00
2022-10-25T17:51:35.773Z,100.00
2022-10-25T17:54:04.316Z,100.00
2022-10-25T17:56:32.736Z,100.00
2022-10-25T17:59:04.321Z,100.00
2022-10-25T18:01:35.638Z,100.00
2022-10-25T18:04:04.457Z,100.00
2022-10-25T18:06:32.732Z,100.00
2022-10-25T18:09:03.114Z,100.00
2022-10-25T18:11:31.409Z,100.00
2022-10-25T18:14:01.688Z,100.00
2022-10-25T18:16:31.367Z,100.00
2022-10-25T18:19:02.339Z,100.00
2022-10-25T18:21:32.916Z,100.00
2022-10-25T18:24:05.186Z,100.00
2022-10-25T18:26:34.865Z,100.00
2022-10-25T18:29:03.231Z,100.00
2022-10-25T18:31:32.018Z,100.00
2022-10-25T18:34:03.509Z,100.00
2022-10-25T18:36:32.526Z,100.00
2022-10-25T18:39:00.791Z,100.00
2022-10-25T18:41:32.569Z,100.00
2022-10-25T18:44:02.914Z,100.00
2022-10-25T18:46:32.679Z,100.00
2022-10-25T18:49:01.243Z,100.00
2022-10-25T18:51:30.261Z,100.00
2022-10-25T18:54:00.978Z,100.00
2022-10-25T18:56:30.675Z,100.00
2022-10-25T18:58:59.285Z,100.00
2022-10-25T19:01:32.551Z,100.00
2022-10-25T19:04:03.813Z,100.00
2022-10-25T19:06:33.032Z,100.00
2022-10-25T19:09:03.100Z,100.00
2022-10-25T19:11:33.418Z,100.00
2022-10-25T19:14:03.123Z,100.00
2022-10-25T19:16:31.699Z,100.00
2022-10-25T19:19:07.084Z,100.00
2022-10-25T19:21:35.899Z,100.00
2022-10-25T19:24:04.963Z,100.00
2022-10-25T19:26:33.318Z,100.00
2022-10-25T19:29:04.061Z,100.00
2022-10-25T19:31:32.621Z,100.00
2022-10-25T19:34:03.272Z,100.00
2022-10-25T19:36:32.239Z,100.00
2022-10-25T19:39:01.476Z,100.00
2022-10-25T19:41:29.960Z,100.00
2022-10-25T19:43:58.772Z,100.00
2022-10-25T19:46:26.971Z,100.00
2022-10-25T19:48:56.379Z,100.00
2022-10-25T19:51:24.796Z,100.00
2022-10-25T19:53:53.167Z,100.00
2022-10-25T19:56:22.907Z,100.00
2022-10-25T19:58:51.559Z,100.00
2022-10-25T20:01:25.053Z,100.00
2022-10-25T20:03:55.527Z,100.00
2022-10-25T20:06:27.098Z,100.00
2022-10-25T20:08:56.717Z,100.00
2022-10-25T20:11:26.394Z,100.00
2022-10-25T20:13:56.314Z,100.00
2022-10-25T20:16:25.203Z,100.00
2022-10-25T20:18:53.494Z,100.00
2022-10-25T20:21:24.123Z,100.00
2022-10-25T20:24:01.486Z,100.00
2022-10-25T20:26:32.805Z,100.00
2022-10-25T20:29:03.614Z,100.00
2022-10-25T20:31:33.576Z,100.00
2022-10-25T20:34:02.703Z,100.00
2022-10-25T20:36:31.059Z,100.00
2022-10-25T20:38:59.209Z,100.00
2022-10-25T20:41:29.497Z,100.00
2022-10-25T20:44:00.592Z,100.00
2022-10-25T20:46:29.973Z,100.00
2022-10-25T20:48:59.258Z,100.00
2022-10-25T20:51:28.159Z,100.00
2022-10-25T20:53:57.064Z,100.00
2022-10-25T20:56:25.523Z,100.00
2022-10-25T20:58:53.783Z,100.00
2022-10-25T21:01:22.183Z,100.00
2022-10-25T21:03:50.490Z,100.00
2022-10-25T21:06:18.721Z,100.00
2022-10-25T21:08:46.991Z,100.00
2022-10-25T21:11:15.286Z,100.00
2022-10-25T21:13:43.782Z,100.00
2022-10-25T21:16:14.628Z,100.00
2022-10-25T21:18:43.647Z,100.00
2022-10-25T21:21:20.361Z,100.00
2022-10-25T21:23:55.585Z,100.00
2022-10-25T21:26:24.514Z,100.00
2022-10-25T21:28:52.695Z,100.00
2022-10-25T21:31:21.086Z,100.00
2022-10-25T21:33:51.833Z,100.00
2022-10-25T21:36:21.158Z,100.00
2022-10-25T21:38:49.430Z,100.00
2022-10-25T21:41:20.879Z,100.00
2022-10-25T21:43:51.003Z,100.00
2022-10-25T21:46:21.228Z,100.00
2022-10-25T21:48:52.974Z,100.00
2022-10-25T21:51:26.885Z,100.00
2022-10-25T21:53:55.606Z,100.00
2022-10-25T21:56:30.707Z,100.00
2022-10-25T21:59:00.433Z,100.00
2022-10-25T22:01:33.349Z,100.00
2022-10-25T22:04:01.700Z,100.00
2022-10-25T22:06:30.511Z,100.00
2022-10-25T22:08:58.804Z,100.00
2022-10-25T22:11:29.657Z,100.00
2022-10-25T22:14:03.196Z,100.00
2022-10-25T22:16:33.161Z,100.00
2022-10-25T22:19:04.515Z,100.00
2022-10-25T22:21:35.348Z,99.99
2022-10-25T22:24:06.037Z,99.98
2022-10-25T22:26:35.505Z,100.00
2022-10-25T22:29:04.294Z,100.00
2022-10-25T22:31:32.940Z,99.90
2022-10-25T22:34:03.543Z,99.81
2022-10-25T22:36:35.029Z,99.87
2022-10-25T22:39:04.850Z,99.92
2022-10-25T22:41:33.629Z,99.99
2022-10-25T22:44:02.369Z,100.00
2022-10-25T22:46:33.509Z,100.00
2022-10-25T22:49:07.438Z,100.00
2022-10-25T22:51:37.176Z,100.00
2022-10-25T22:54:05.736Z,100.00
2022-10-25T22:56:34.184Z,100.00
2022-10-25T22:59:05.076Z,100.00
2022-10-25T23:01:36.377Z,100.00
2022-10-25T23:04:07.036Z,100.00
2022-10-25T23:06:38.132Z,100.00
2022-10-25T23:09:09.314Z,100.00
2022-10-25T23:11:39.354Z,100.00
2022-10-25T23:14:13.461Z,100.00
2022-10-25T23:16:46.378Z,100.00
2022-10-25T23:19:14.922Z,100.00
2022-10-25T23:21:43.162Z,100.00
2022-10-25T23:24:11.459Z,100.00
2022-10-25T23:26:39.895Z,100.00
2022-10-25T23:29:08.296Z,100.00
2022-10-25T23:31:36.830Z,100.00
2022-10-25T23:34:05.138Z,100.00
2022-10-25T23:36:39.291Z,100.00
2022-10-25T23:39:08.242Z,100.00
2022-10-25T23:41:36.561Z,100.00
2022-10-25T23:44:04.916Z,100.00
2022-10-25T23:46:33.267Z,100.00
2022-10-25T23:49:01.519Z,100.00
2022-10-25T23:51:29.768Z,100.00
2022-10-25T23:53:58.061Z,100.00
2022-10-25T23:56:26.393Z,100.00
2022-10-25T23:58:54.724Z,100.00
